Time;durP1;ratioP1;P1;durP2;ratioP2;P2;SDS_P1;SDS_P2;PMS_P1;PMS_P2;Temp;Humidity;BMP_temperature;BMP_pressure;BME280_temperature;BME280_humidity;BME280_pressure;Samples;Min_cycle;Max_cycle;Signal;HPM_P1;HPM_P2
2021/11/30 00:00:11;;;;;;;9.80;5.30;;;;;;;0.95;100.00;100057.06;5087682;28;20357;-73
2021/11/30 00:02:37;;;;;;;10.48;5.82;;;;;;;0.87;100.00;100030.50;5087887;28;20113;-73
2021/11/30 00:05:03;;;;;;;9.85;5.38;;;;;;;0.99;100.00;100043.56;5088553;28;20090;-75
2021/11/30 00:07:29;;;;;;;11.05;5.32;;;;;;;1.04;100.00;100035.31;5088752;28;20032;-75
2021/11/30 00:12:25;;;;;;;8.57;4.78;;;;;;;1.03;100.00;100012.59;5088684;28;20131;-75
2021/11/30 00:14:53;;;;;;;9.30;4.93;;;;;;;1.05;100.00;100008.06;5088344;28;20092;-73
2021/11/30 00:17:20;;;;;;;9.60;5.00;;;;;;;1.05;100.00;100010.69;5070713;28;20064;-73
2021/11/30 00:19:47;;;;;;;12.32;5.25;;;;;;;0.98;100.00;99998.97;5087656;28;20134;-73
2021/11/30 00:22:17;;;;;;;15.30;4.97;;;;;;;1.18;100.00;100019.31;5087751;28;20505;-73
2021/11/30 00:24:43;;;;;;;12.70;6.05;;;;;;;1.06;100.00;99991.34;5088478;28;20032;-73
2021/11/30 00:27:09;;;;;;;13.68;5.85;;;;;;;1.13;100.00;100004.88;5088504;28;20387;-73
2021/11/30 00:29:35;;;;;;;10.07;5.45;;;;;;;1.07;100.00;99984.28;5087656;28;20031;-73
2021/11/30 00:32:01;;;;;;;11.15;6.20;;;;;;;1.10;100.00;99995.41;5087547;28;20381;-73
2021/11/30 00:34:27;;;;;;;;;;;;;;;1.02;100.00;99976.78;5088925;28;20036;-73
2021/11/30 00:36:52;;;;;;;11.45;6.03;;;;;;;1.02;100.00;99974.13;5088409;28;20327;-73
2021/11/30 00:39:19;;;;;;;11.40;5.57;;;;;;;0.95;100.00;99958.00;5087548;28;20035;-72
2021/11/30 00:41:49;;;;;;;;;;;;;;;1.00;100.00;99960.28;5088789;28;20529;-71
2021/11/30 00:44:19;;;;;;;17.05;5.65;;;;;;;0.90;100.00;99954.09;5087173;28;19967;-71
2021/11/30 00:46:47;;;;;;;12.13;5.78;;;;;;;0.93;100.00;99956.47;5088300;28;20109;-71
2021/11/30 00:49:12;;;;;;;13.82;6.32;;;;;;;0.92;100.00;99962.69;5087455;28;20089;-72
2021/11/30 00:51:41;;;;;;;12.57;6.38;;;;;;;0.86;100.00;99947.38;5088495;28;20035;-72
2021/11/30 00:54:08;;;;;;;13.85;6.95;;;;;;;0.94;100.00;99955.53;5086771;28;20143;-72
2021/11/30 00:56:36;;;;;;;14.00;6.97;;;;;;;0.88;100.00;99940.22;5088283;28;20040;-73
2021/11/30 00:59:02;;;;;;;14.73;6.78;;;;;;;0.77;100.00;99910.38;5088257;28;20390;-72
2021/11/30 01:01:30;;;;;;;17.92;9.00;;;;;;;0.72;100.00;99909.03;5087373;28;20118;-72
2021/11/30 01:03:56;;;;;;;17.70;8.00;;;;;;;0.86;100.00;99931.63;5086924;28;20094;-72
2021/11/30 01:06:21;;;;;;;18.27;8.80;;;;;;;0.84;100.00;99916.81;5090201;28;20067;-72
2021/11/30 01:08:47;;;;;;;21.50;8.70;;;;;;;0.81;100.00;99913.56;5092106;28;20046;-72
2021/11/30 01:11:12;;;;;;;19.98;9.32;;;;;;;0.87;100.00;99925.38;5092256;28;20595;-73
2021/11/30 01:13:37;;;;;;;16.87;9.63;;;;;;;0.88;100.00;99924.44;5090849;28;20036;-72
2021/11/30 01:16:04;;;;;;;20.70;9.65;;;;;;;0.88;100.00;99900.81;5092190;28;20296;-72
2021/11/30 01:18:30;;;;;;;18.17;9.10;;;;;;;0.90;100.00;99891.00;5074002;28;20050;-73
2021/11/30 01:20:56;;;;;;;18.00;8.45;;;;;;;0.92;100.00;99889.09;5090821;28;20485;-72
2021/11/30 01:23:21;;;;;;;;;;;;;;;0.94;100.00;99892.44;5092165;28;20039;-72
2021/11/30 01:25:47;;;;;;;20.55;10.90;;;;;;;0.89;100.00;99881.44;5090672;28;20138;-72
2021/11/30 01:28:12;;;;;;;25.20;11.95;;;;;;;1.00;100.00;99897.19;5091794;28;20504;-72
2021/11/30 01:30:39;;;;;;;23.15;11.25;;;;;;;0.94;100.00;99887.19;5092160;28;20461;-72
2021/11/30 01:33:06;;;;;;;21.55;11.20;;;;;;;0.92;100.00;99886.47;5090738;28;20024;-72
2021/11/30 01:35:33;;;;;;;24.40;12.75;;;;;;;0.97;100.00;99885.13;5091176;28;20039;-72
2021/11/30 01:37:59;;;;;;;25.58;12.25;;;;;;;0.98;100.00;99883.34;5091548;28;20032;-72
2021/11/30 01:40:26;;;;;;;26.15;12.50;;;;;;;1.02;100.00;99874.25;5090653;28;20488;-72
2021/11/30 01:42:54;;;;;;;28.48;13.75;;;;;;;1.05;100.00;99863.47;5091586;28;20396;-72
2021/11/30 01:50:28;;;;;;;28.25;14.00;;;;;;;0.98;100.00;99838.66;5091556;28;20072;-72
2021/11/30 01:52:53;;;;;;;39.13;15.35;;;;;;;1.01;100.00;99848.94;5090340;28;20070;-71
2021/11/30 01:55:19;;;;;;;34.13;15.30;;;;;;;1.01;100.00;99841.88;5090712;28;20031;-72
2021/11/30 01:57:45;;;;;;;32.23;15.40;;;;;;;1.01;100.00;99835.78;5090424;28;20093;-73
2021/11/30 02:00:11;;;;;;;30.02;14.02;;;;;;;1.07;100.00;99830.03;5089999;28;20286;-72
2021/11/30 02:02:38;;;;;;;35.42;15.88;;;;;;;1.15;100.00;99835.50;5091094;28;20465;-71
2021/11/30 02:05:03;;;;;;;26.70;14.88;;;;;;;1.06;100.00;99809.97;5091021;28;20465;-71
2021/11/30 02:07:29;;;;;;;28.40;14.70;;;;;;;1.24;100.00;99847.06;5073126;28;20032;-74
2021/11/30 02:09:54;;;;;;;32.22;15.75;;;;;;;1.13;100.00;99816.38;5090124;28;20028;-74
2021/11/30 02:12:21;;;;;;;31.95;14.77;;;;;;;1.12;100.00;99806.00;5073119;28;20032;-74
2021/11/30 02:14:46;;;;;;;31.90;13.77;;;;;;;1.12;100.00;99803.34;5089535;28;20032;-74
2021/11/30 02:17:14;;;;;;;29.80;13.15;;;;;;;1.21;100.00;99799.97;5089607;28;20457;-74
2021/11/30 02:19:55;;;;;;;25.00;12.95;;;;;;;1.19;100.00;99773.81;5089758;28;20038;-74
2021/11/30 02:22:21;;;;;;;27.80;13.43;;;;;;;1.33;100.00;99779.72;5072960;28;20047;-74
2021/11/30 02:24:47;;;;;;;29.77;12.50;;;;;;;1.29;100.00;99766.00;5089442;28;20028;-74
2021/11/30 02:27:12;;;;;;;25.15;12.55;;;;;;;1.32;100.00;99759.66;5090573;28;20062;-74
2021/11/30 02:29:38;;;;;;;22.63;13.45;;;;;;;1.32;100.00;99722.84;5089917;28;20036;-74
2021/11/30 02:32:04;;;;;;;24.98;12.80;;;;;;;1.30;100.00;99716.88;5090669;28;20117;-74
2021/11/30 02:34:30;;;;;;;23.48;11.88;;;;;;;1.26;100.00;99706.63;5090158;28;20078;-74
2021/11/30 02:37:04;;;;;;;22.73;10.95;;;;;;;1.32;100.00;99691.28;5089644;28;20039;-74
2021/11/30 02:39:29;;;;;;;18.23;10.98;;;;;;;1.35;100.00;99696.28;5072545;28;20035;-74
2021/11/30 02:41:56;;;;;;;25.10;11.07;;;;;;;1.40;100.00;99688.84;5089290;28;20050;-74
2021/11/30 02:44:25;;;;;;;18.27;10.38;;;;;;;1.37;100.00;99661.00;5088957;28;20169;-73
2021/11/30 02:46:56;;;;;;;18.85;9.43;;;;;;;1.30;100.00;99641.44;5089166;28;20035;-74
2021/11/30 02:49:26;;;;;;;19.48;10.25;;;;;;;1.39;100.00;99645.94;5088162;28;20051;-74
2021/11/30 02:52:08;;;;;;;19.85;9.88;;;;;;;1.49;100.00;99640.72;5089626;28;20164;-74
2021/11/30 02:54:36;;;;;;;18.50;10.75;;;;;;;1.52;100.00;99640.44;5089369;28;20177;-74
2021/11/30 02:57:05;;;;;;;16.30;8.68;;;;;;;1.58;100.00;99623.31;5089126;28;20115;-74
2021/11/30 02:59:38;;;;;;;15.43;8.55;;;;;;;1.63;100.00;99606.16;5088957;28;20036;-73
2021/11/30 03:02:12;;;;;;;16.23;7.78;;;;;;;1.69;100.00;99584.56;5072095;28;20370;-74
2021/11/30 03:04:40;;;;;;;14.30;7.35;;;;;;;1.81;100.00;99566.06;5071758;28;20464;-74
2021/11/30 03:07:10;;;;;;;14.43;6.68;;;;;;;1.91;100.00;99559.00;5089818;28;20032;-74
2021/11/30 03:09:36;;;;;;;17.02;7.15;;;;;;;1.93;100.00;99529.91;5072076;28;20040;-74
2021/11/30 03:12:02;;;;;;;12.52;6.85;;;;;;;1.85;100.00;99483.19;5088734;28;20032;-74
2021/11/30 03:14:29;;;;;;;9.98;5.47;;;;;;;2.00;100.00;99481.00;5088570;28;20040;-74
2021/11/30 03:16:55;;;;;;;16.75;8.55;;;;;;;2.04;100.00;99453.44;5089482;28;20032;-74
2021/11/30 03:19:21;;;;;;;10.32;7.50;;;;;;;2.06;100.00;99447.06;5088391;28;20130;-72
2021/11/30 03:21:47;;;;;;;12.93;7.38;;;;;;;2.08;100.00;99410.06;5087558;28;20188;-74
2021/11/30 03:24:13;;;;;;;17.27;7.43;;;;;;;2.10;100.00;99419.47;5089557;28;20035;-74
2021/11/30 03:26:39;;;;;;;13.35;7.20;;;;;;;2.10;100.00;99389.69;5071504;28;20087;-74
2021/11/30 03:29:05;;;;;;;15.95;8.23;;;;;;;2.05;100.00;99374.31;5088246;28;20036;-74
2021/11/30 03:31:48;;;;;;;12.50;7.77;;;;;;;2.04;100.00;99362.13;5071652;28;20027;-74
2021/11/30 03:34:22;;;;;;;12.43;6.60;;;;;;;2.02;100.00;99361.44;5088090;28;20305;-74
2021/11/30 03:36:50;;;;;;;14.63;7.97;;;;;;;1.96;100.00;99346.19;5088347;28;20066;-74
2021/11/30 03:39:22;;;;;;;17.45;7.25;;;;;;;2.02;100.00;99355.34;5089703;28;20036;-74
2021/11/30 03:41:50;;;;;;;11.18;7.00;;;;;;;2.02;100.00;99324.56;5088361;28;20077;-74
2021/11/30 03:44:16;;;;;;;11.43;6.03;;;;;;;1.90;100.00;99304.66;5089237;28;20032;-74
2021/11/30 03:46:42;;;;;;;11.52;7.47;;;;;;;1.84;100.00;99292.06;5088178;28;20043;-74
2021/11/30 03:49:09;;;;;;;13.75;7.00;;;;;;;1.81;100.00;99290.56;5089157;28;20424;-73
2021/11/30 03:51:36;;;;;;;16.85;7.10;;;;;;;1.81;100.00;99300.25;5070909;28;20084;-74
2021/11/30 03:54:03;;;;;;;9.20;5.88;;;;;;;1.84;100.00;99297.31;5087471;28;20338;-74
2021/11/30 03:56:29;;;;;;;13.13;7.18;;;;;;;1.83;100.00;99300.94;5088926;28;20043;-74
2021/11/30 03:58:55;;;;;;;12.07;6.78;;;;;;;1.86;100.00;99305.91;5088155;28;20040;-74
2021/11/30 04:01:21;;;;;;;8.38;5.57;;;;;;;1.86;100.00;99284.84;5089117;28;20035;-74
2021/11/30 04:03:46;;;;;;;15.05;7.63;;;;;;;1.88;100.00;99282.91;5088505;28;20084;-74
2021/11/30 04:06:12;;;;;;;9.43;5.65;;;;;;;1.80;100.00;99281.00;5088781;28;20116;-74
2021/11/30 04:08:41;;;;;;;9.32;5.13;;;;;;;1.85;100.00;99260.34;5088788;28;20583;-74
2021/11/30 04:11:09;;;;;;;7.07;5.15;;;;;;;1.91;100.00;99269.47;5088619;28;20105;-71
2021/11/30 04:13:36;;;;;;;9.52;4.85;;;;;;;1.95;100.00;99249.78;5088749;28;20036;-74
2021/11/30 04:16:02;;;;;;;6.82;4.80;;;;;;;1.96;100.00;99240.91;5070867;28;20020;-74
2021/11/30 04:18:28;;;;;;;;;;;;;;;1.96;100.00;99247.97;5088018;28;20477;-73
2021/11/30 04:20:54;;;;;;;8.18;4.63;;;;;;;1.95;100.00;99241.88;5088529;28;19915;-73
2021/11/30 04:23:20;;;;;;;8.10;5.00;;;;;;;2.00;100.00;99257.25;5087638;28;20225;-73
2021/11/30 04:25:45;;;;;;;12.88;5.78;;;;;;;2.00;100.00;99258.06;5087401;28;20042;-74
2021/11/30 04:28:11;;;;;;;6.03;4.47;;;;;;;2.02;100.00;99242.97;5070974;28;20123;-73
2021/11/30 04:30:37;;;;;;;9.27;5.00;;;;;;;2.03;100.00;99238.53;5087635;28;20047;-73
2021/11/30 04:33:02;;;;;;;7.00;4.30;;;;;;;2.10;100.00;99242.25;5088592;28;20242;-73
2021/11/30 04:35:28;;;;;;;6.43;4.13;;;;;;;2.11;100.00;99231.56;5088112;28;20028;-74
2021/11/30 04:37:53;;;;;;;7.15;4.32;;;;;;;2.16;100.00;99228.50;5070640;28;20496;-74
2021/11/30 04:40:20;;;;;;;6.85;4.10;;;;;;;2.25;100.00;99230.28;5070881;28;20032;-74
2021/11/30 04:42:47;;;;;;;7.97;4.60;;;;;;;2.23;100.00;99219.03;5091739;28;20465;-73
2021/11/30 04:45:28;;;;;;;7.80;4.18;;;;;;;2.19;100.00;99212.41;5091279;28;20040;-74
2021/11/30 04:47:55;;;;;;;5.68;4.00;;;;;;;2.24;100.00;99202.25;5092467;28;20407;-74
2021/11/30 04:50:29;;;;;;;7.05;4.18;;;;;;;2.25;100.00;99197.84;5074620;28;20484;-74
2021/11/30 04:52:57;;;;;;;7.65;5.03;;;;;;;2.26;100.00;99192.41;5092371;28;20035;-73
2021/11/30 04:55:29;;;;;;;11.30;4.35;;;;;;;2.31;100.00;99213.84;5073952;28;20032;-73
2021/11/30 04:57:58;;;;;;;5.10;3.00;;;;;;;2.30;100.00;99185.06;5091301;28;20111;-74
2021/11/30 05:00:26;;;;;;;5.95;3.88;;;;;;;2.33;100.00;99198.75;5074427;28;20036;-74
2021/11/30 05:02:52;;;;;;;6.35;3.53;;;;;;;2.27;100.00;99177.44;5092274;28;20036;-73
2021/11/30 05:05:17;;;;;;;6.75;4.72;;;;;;;2.29;100.00;99186.03;5092131;28;20451;-74
2021/11/30 05:07:43;;;;;;;5.95;4.50;;;;;;;2.32;100.00;99181.28;5091257;28;20032;-72
2021/11/30 05:10:10;;;;;;;6.32;4.32;;;;;;;2.37;100.00;99175.59;5092070;28;20036;-71
2021/11/30 05:12:36;;;;;;;3.92;3.50;;;;;;;2.33;100.00;99156.59;5091975;28;20047;-72
2021/11/30 05:15:03;;;;;;;5.97;3.72;;;;;;;2.43;100.00;99198.69;5090714;28;20032;-71
2021/11/30 05:17:29;;;;;;;5.13;3.55;;;;;;;2.49;100.00;99200.72;5074150;28;20040;-71
2021/11/30 05:19:55;;;;;;;6.70;4.22;;;;;;;2.51;100.00;99198.78;5091095;28;20036;-72
2021/11/30 05:22:20;;;;;;;6.95;4.18;;;;;;;2.46;100.00;99177.34;5090951;28;20024;-72
2021/11/30 05:24:46;;;;;;;8.30;3.97;;;;;;;2.45;100.00;99190.63;5090572;28;20059;-72
2021/11/30 05:27:12;;;;;;;7.45;3.72;;;;;;;2.60;100.00;99214.66;5090662;28;20063;-72
2021/11/30 05:29:38;;;;;;;6.20;3.97;;;;;;;2.57;100.00;99213.16;5090704;28;20135;-72
2021/11/30 05:32:03;;;;;;;5.85;5.00;;;;;;;2.67;100.00;99215.72;5090756;28;20391;-72
2021/11/30 05:34:29;;;;;;;5.65;4.22;;;;;;;2.69;100.00;99230.44;5090434;28;20082;-72
2021/11/30 05:36:54;;;;;;;5.68;3.17;;;;;;;2.72;100.00;99208.22;5091576;28;20410;-72
2021/11/30 05:39:20;;;;;;;5.60;4.18;;;;;;;2.82;100.00;99223.97;5090612;28;20497;-72
2021/11/30 05:41:45;;;;;;;6.17;4.30;;;;;;;2.85;100.00;99221.84;5090540;28;20040;-72
2021/11/30 05:44:11;;;;;;;6.05;3.30;;;;;;;2.85;100.00;99211.28;5090356;28;20255;-72
2021/11/30 05:46:37;;;;;;;3.70;2.80;;;;;;;2.91;100.00;99233.59;5073570;28;20361;-72
2021/11/30 05:49:06;;;;;;;4.28;2.95;;;;;;;2.93;100.00;99227.19;5073700;28;20270;-72
2021/11/30 05:51:34;;;;;;;5.90;3.70;;;;;;;2.95;100.00;99250.78;5090114;28;20469;-72
2021/11/30 05:54:00;;;;;;;6.53;3.80;;;;;;;2.96;100.00;99253.25;5072770;28;20040;-72
2021/11/30 05:56:26;;;;;;;;;;;;;;;3.00;100.00;99272.25;5090791;28;20024;-72
2021/11/30 05:58:52;;;;;;;5.60;3.45;;;;;;;3.00;100.00;99281.94;5091108;28;20142;-72
2021/11/30 06:01:23;;;;;;;6.88;3.65;;;;;;;3.06;100.00;99295.38;5090544;28;20141;-72
2021/11/30 06:06:15;;;;;;;4.40;3.05;;;;;;;3.11;100.00;99311.59;5090929;28;20076;-72
2021/11/30 06:08:41;;;;;;;7.03;3.33;;;;;;;3.15;100.00;99326.13;5090064;28;20179;-72
2021/11/30 06:11:06;;;;;;;6.97;4.10;;;;;;;3.24;100.00;99339.41;5091003;28;20043;-72
2021/11/30 06:13:32;;;;;;;6.65;3.70;;;;;;;3.30;100.00;99357.25;5072884;28;20278;-72
2021/11/30 06:15:57;;;;;;;5.07;3.58;;;;;;;3.43;100.00;99378.00;5073012;28;20110;-72
2021/11/30 06:18:23;;;;;;;8.73;3.50;;;;;;;3.43;100.00;99388.56;5090015;28;20032;-71
2021/11/30 06:20:49;;;;;;;10.48;4.47;;;;;;;3.34;100.00;99406.09;5089660;28;20054;-71
2021/11/30 06:23:15;;;;;;;;;;;;;;;3.52;100.00;99443.06;5090192;28;20103;-71
2021/11/30 06:25:40;;;;;;;10.50;4.82;;;;;;;3.51;100.00;99429.06;5090467;28;19912;-71
2021/11/30 06:28:06;;;;;;;9.10;4.53;;;;;;;3.52;100.00;99454.47;5072822;28;20027;-71
2021/11/30 06:30:32;;;;;;;8.15;4.20;;;;;;;3.50;100.00;99440.56;5090686;28;20444;-71
2021/11/30 06:32:57;;;;;;;13.63;5.30;;;;;;;3.58;100.00;99463.56;5089612;28;20176;-71
2021/11/30 06:35:22;;;;;;;13.70;4.57;;;;;;;3.59;100.00;99467.91;5089280;28;20043;-71
2021/11/30 06:37:48;;;;;;;13.20;5.13;;;;;;;3.63;100.00;99482.47;5090786;28;20297;-72
2021/11/30 06:40:14;;;;;;;8.32;3.55;;;;;;;3.72;100.00;99496.56;5089524;28;20040;-71
2021/11/30 06:42:40;;;;;;;9.90;3.63;;;;;;;3.75;100.00;99512.94;5089335;28;20051;-72
2021/11/30 06:45:06;;;;;;;;;;;;;;;3.70;100.00;99512.56;5090668;28;20487;-71
2021/11/30 06:47:32;;;;;;;12.38;3.70;;;;;;;3.76;100.00;99535.72;5089289;28;19958;-72
2021/11/30 06:49:57;;;;;;;16.90;3.40;;;;;;;3.72;100.00;99523.81;5090674;28;20147;-71
2021/11/30 06:52:23;;;;;;;13.60;3.78;;;;;;;3.78;100.00;99554.88;5089956;28;20116;-72
2021/11/30 06:54:51;;;;;;;12.80;2.93;;;;;;;3.99;100.00;99569.63;5088633;28;20071;-71
2021/11/30 06:57:17;;;;;;;14.25;1.80;;;;;;;4.02;100.00;99578.06;5088919;28;20290;-72
2021/11/30 06:59:43;;;;;;;18.73;4.67;;;;;;;4.02;100.00;99570.16;5090091;28;20173;-72
2021/11/30 07:02:10;;;;;;;14.75;2.42;;;;;;;4.13;100.00;99570.94;5089879;28;20584;-72
2021/11/30 07:04:40;;;;;;;15.45;2.55;;;;;;;4.15;100.00;99551.31;5088080;28;20035;-72
2021/11/30 07:07:52;;;;;;;19.15;3.30;;;;;;;4.20;100.00;99501.47;5089889;28;20048;-71
2021/11/30 07:15:06;;;;;;;13.50;2.88;;;;;;;4.21;100.00;99254.81;5089671;28;20370;-71
2021/11/30 07:17:32;;;;;;;17.70;5.18;;;;;;;4.18;100.00;99210.22;5071747;28;20077;-72
2021/11/30 07:19:58;;;;;;;28.90;4.95;;;;;;;4.15;100.00;99163.00;5088766;28;20036;-72
2021/11/30 07:22:24;;;;;;;17.52;3.53;;;;;;;4.18;100.00;99146.81;5071639;28;20032;-72
2021/11/30 07:24:50;;;;;;;23.90;7.47;;;;;;;4.20;100.00;99123.72;5088290;28;20032;-72
2021/11/30 07:27:16;;;;;;;18.17;2.92;;;;;;;4.28;100.00;99106.22;5089757;28;20066;-72
2021/11/30 07:29:41;;;;;;;25.05;4.13;;;;;;;4.26;100.00;99079.13;5088481;28;20043;-72
2021/11/30 07:32:08;;;;;;;37.47;4.30;;;;;;;4.27;100.00;99065.78;5089515;28;20059;-72
2021/11/30 07:34:33;;;;;;;18.67;3.13;;;;;;;4.21;100.00;99030.28;5089209;28;20050;-72
2021/11/30 07:36:59;;;;;;;27.90;4.80;;;;;;;4.16;100.00;99024.66;5071633;28;20020;-72
2021/11/30 07:39:25;;;;;;;18.25;4.43;;;;;;;4.27;100.00;99018.22;5088345;28;20528;-71
2021/11/30 07:41:50;;;;;;;15.27;2.85;;;;;;;4.19;100.00;98987.34;5071352;28;20036;-72
2021/11/30 07:44:16;;;;;;;15.00;3.20;;;;;;;4.20;100.00;98991.63;5071118;28;20031;-72
2021/11/30 07:46:41;;;;;;;20.10;3.88;;;;;;;4.18;100.00;98984.88;5088267;28;20123;-72
2021/11/30 07:49:06;;;;;;;17.50;2.50;;;;;;;4.25;100.00;98992.97;5088239;28;20016;-72
2021/11/30 07:51:32;;;;;;;11.80;2.38;;;;;;;4.15;100.00;98969.34;5089274;28;20898;-72
2021/11/30 07:53:59;;;;;;;18.38;5.07;;;;;;;4.11;100.00;98965.38;5087983;28;20522;-72
2021/11/30 07:56:25;;;;;;;27.00;5.18;;;;;;;4.16;100.00;98977.09;5087292;28;20047;-72
2021/11/30 07:58:50;;;;;;;20.80;3.20;;;;;;;4.06;100.00;98965.88;5088972;28;20024;-72
2021/11/30 08:01:16;;;;;;;18.35;3.95;;;;;;;4.13;100.00;98955.50;5088960;28;20484;-72
2021/11/30 08:03:43;;;;;;;14.00;3.20;;;;;;;4.14;100.00;98959.78;5087859;28;20024;-72
2021/11/30 08:06:10;;;;;;;15.25;3.50;;;;;;;4.15;100.00;98948.22;5089177;28;20036;-71
2021/11/30 08:08:36;;;;;;;18.25;2.78;;;;;;;4.17;100.00;98957.63;5087730;28;20036;-71
2021/11/30 08:11:01;;;;;;;15.15;2.83;;;;;;;4.09;100.00;98939.13;5071024;28;20042;-71
2021/11/30 08:13:27;;;;;;;11.15;2.20;;;;;;;4.16;100.00;98934.03;5088895;28;20496;-72
2021/11/30 08:15:53;;;;;;;19.90;3.20;;;;;;;4.18;100.00;98929.41;5086819;28;20032;-71
2021/11/30 08:18:19;;;;;;;15.80;3.58;;;;;;;4.23;100.00;98925.25;5087615;28;20085;-71
2021/11/30 08:20:44;;;;;;;16.58;3.25;;;;;;;4.31;99.65;98923.59;5087926;28;20044;-71
2021/11/30 08:23:12;;;;;;;23.48;3.30;;;;;;;4.22;98.82;98905.13;5087536;28;20031;-71
2021/11/30 08:25:38;;;;;;;17.35;2.63;;;;;;;4.20;98.51;98901.81;5070587;28;20056;-71
2021/11/30 08:28:04;;;;;;;23.48;3.58;;;;;;;4.22;97.65;98891.09;5087621;28;20028;-70
2021/11/30 08:30:30;;;;;;;20.35;3.53;;;;;;;4.27;97.11;98903.81;5087565;28;20531;-71
2021/11/30 08:32:55;;;;;;;20.25;3.83;;;;;;;4.21;96.98;98890.28;5088902;28;20051;-71
2021/11/30 08:35:21;;;;;;;19.17;2.53;;;;;;;4.15;96.97;98885.66;5070467;28;20089;-71
2021/11/30 08:37:46;;;;;;;24.35;3.03;;;;;;;4.21;97.30;98906.13;5087426;28;20039;-71
2021/11/30 08:40:12;;;;;;;12.47;2.73;;;;;;;4.23;97.08;98909.41;5070818;28;20040;-71
2021/11/30 08:42:38;;;;;;;18.17;2.47;;;;;;;4.22;96.92;98902.50;5070776;28;20282;-70
2021/11/30 08:45:06;;;;;;;15.55;2.67;;;;;;;4.25;97.00;98908.44;5087293;28;20334;-71
2021/11/30 08:47:32;;;;;;;14.55;2.97;;;;;;;4.20;97.49;98903.66;5088441;28;20032;-71
2021/11/30 08:49:59;;;;;;;21.02;4.50;;;;;;;4.27;97.31;98925.75;5087431;28;20024;-70
2021/11/30 08:52:27;;;;;;;18.45;2.72;;;;;;;4.30;97.01;98916.69;5087235;28;20072;-71
2021/11/30 08:54:56;;;;;;;17.98;2.65;;;;;;;4.20;97.06;98912.38;5086868;28;20538;-71
2021/11/30 08:57:25;;;;;;;16.10;2.58;;;;;;;4.29;96.75;98922.97;5088200;28;20168;-71
2021/11/30 08:59:52;;;;;;;16.83;2.83;;;;;;;4.32;96.35;98906.78;5088232;28;20032;-71
2021/11/30 09:02:18;;;;;;;21.35;2.55;;;;;;;4.35;96.62;98909.06;5087172;28;20031;-71
2021/11/30 09:04:44;;;;;;;14.30;2.70;;;;;;;4.37;96.62;98893.88;5087973;28;20101;-71
2021/11/30 09:07:09;;;;;;;20.85;4.10;;;;;;;4.34;96.41;98875.72;5088314;28;20039;-71
2021/11/30 09:09:35;;;;;;;13.20;2.93;;;;;;;4.36;95.85;98889.59;5088274;28;20034;-72
2021/11/30 09:12:01;;;;;;;21.27;3.28;;;;;;;4.43;95.68;98895.84;5087239;28;20036;-72
2021/11/30 09:14:27;;;;;;;24.17;3.63;;;;;;;4.41;95.49;98888.09;5087062;28;20412;-72
2021/11/30 09:16:55;;;;;;;21.67;3.72;;;;;;;4.39;95.29;98886.63;5070392;28;20108;-72
2021/11/30 09:19:21;;;;;;;17.90;3.35;;;;;;;4.50;95.38;98898.66;5087420;28;20119;-72
2021/11/30 09:21:48;;;;;;;31.70;3.72;;;;;;;4.57;94.83;98891.69;5069872;28;20068;-72
2021/11/30 09:24:13;;;;;;;;;;;;;;;4.49;94.29;98874.03;5088234;28;20054;-72
2021/11/30 09:26:39;;;;;;;19.65;3.80;;;;;;;4.42;93.57;98855.41;5087974;28;19977;-72
2021/11/30 09:29:05;;;;;;;18.80;2.90;;;;;;;4.40;93.88;98846.81;5091095;28;20334;-72
2021/11/30 09:31:31;;;;;;;;;;;;;;;4.44;93.95;98857.84;5091218;28;20024;-72
2021/11/30 09:33:58;;;;;;;20.98;3.22;;;;;;;4.44;93.51;98847.28;5073651;28;19922;-72
2021/11/30 09:36:24;;;;;;;21.35;3.00;;;;;;;4.49;92.90;98846.78;5073832;28;20040;-72
2021/11/30 09:38:49;;;;;;;22.33;4.80;;;;;;;4.49;92.15;98836.22;5073731;28;20131;-72
2021/11/30 09:41:15;;;;;;;12.82;3.05;;;;;;;4.48;91.31;98821.38;5091422;28;20362;-72
2021/11/30 09:43:40;;;;;;;31.23;4.47;;;;;;;4.52;90.28;98810.28;5090219;28;20040;-71
2021/11/30 09:46:08;;;;;;;20.30;3.22;;;;;;;4.60;88.97;98804.13;5090402;28;20039;-72
2021/11/30 09:48:35;;;;;;;18.10;4.15;;;;;;;4.57;88.58;98789.44;5090366;28;20046;-72
2021/11/30 09:51:00;;;;;;;33.60;4.75;;;;;;;4.56;89.03;98811.56;5090586;28;20085;-72
2021/11/30 09:53:27;;;;;;;21.98;3.20;;;;;;;4.64;87.94;98787.75;5090290;28;20035;-72
2021/11/30 09:55:54;;;;;;;26.67;3.40;;;;;;;4.70;87.39;98782.78;5090051;28;20039;-71
2021/11/30 09:58:22;;;;;;;16.40;3.67;;;;;;;4.76;86.80;98760.94;5090155;28;20372;-71
2021/11/30 10:00:51;;;;;;;14.65;3.67;;;;;;;4.89;86.01;98766.47;5091215;28;20075;-72
2021/11/30 10:03:19;;;;;;;21.42;3.95;;;;;;;4.94;86.04;98769.44;5089595;28;20032;-72
2021/11/30 10:05:44;;;;;;;22.60;4.90;;;;;;;4.92;85.96;98776.72;5090836;28;20027;-71
2021/11/30 10:08:29;;;;;;;33.72;5.82;;;;;;;4.86;86.38;98756.25;5089984;28;20342;-71
2021/11/30 10:10:55;;;;;;;36.42;5.22;;;;;;;4.81;86.73;98763.88;5091136;28;20039;-72
2021/11/30 10:13:21;;;;;;;19.20;3.42;;;;;;;4.86;86.84;98772.94;5090014;28;20368;-71
2021/11/30 10:15:46;;;;;;;19.95;4.07;;;;;;;4.82;87.05;98762.88;5090902;28;20120;-71
2021/11/30 10:18:15;;;;;;;24.33;4.47;;;;;;;4.87;86.80;98779.06;5090757;28;20536;-72
2021/11/30 10:20:40;;;;;;;21.20;3.75;;;;;;;4.88;86.12;98753.44;5072957;28;20036;-72
2021/11/30 10:23:06;;;;;;;18.40;3.63;;;;;;;4.89;86.17;98745.31;5089476;28;20020;-71
2021/11/30 10:25:38;;;;;;;28.77;4.17;;;;;;;4.98;85.34;98733.69;5089500;28;20036;-71
2021/11/30 10:28:05;;;;;;;19.95;3.72;;;;;;;5.05;84.58;98726.69;5089574;28;20082;-71
2021/11/30 10:30:34;;;;;;;25.10;4.78;;;;;;;5.18;84.48;98743.81;5072900;28;20076;-72
2021/11/30 10:33:08;;;;;;;26.30;3.92;;;;;;;5.23;82.94;98723.75;5072827;28;20475;-71
2021/11/30 10:35:34;;;;;;;22.17;3.85;;;;;;;5.23;82.22;98688.56;5089121;28;20036;-71
2021/11/30 10:38:01;;;;;;;20.63;3.30;;;;;;;5.25;81.32;98675.97;5088447;28;20477;-71
2021/11/30 10:40:30;;;;;;;25.08;3.95;;;;;;;5.21;79.80;98661.44;5089266;28;20410;-71
2021/11/30 10:42:58;;;;;;;19.75;4.70;;;;;;;5.28;78.95;98643.84;5089463;28;20032;-71
2021/11/30 10:45:29;;;;;;;19.90;3.67;;;;;;;5.34;78.35;98643.16;5088924;28;20051;-71
2021/11/30 10:48:14;;;;;;;34.50;3.72;;;;;;;5.47;77.78;98651.25;5090367;28;20028;-71
2021/11/30 10:50:42;;;;;;;23.67;3.63;;;;;;;5.41;76.20;98596.44;5089351;28;20032;-71
2021/11/30 10:53:17;;;;;;;30.33;3.97;;;;;;;5.36;77.43;98643.78;5090042;28;20036;-71
2021/11/30 10:56:12;;;;;;;15.13;3.85;;;;;;;5.27;78.45;98658.09;5088696;28;20540;-71
2021/11/30 10:58:40;;;;;;;15.13;3.75;;;;;;;5.33;77.52;98640.66;5084525;28;20147;-71
2021/11/30 11:01:15;;;;;;;24.90;3.83;;;;;;;5.28;76.68;98617.41;5072005;28;20028;-71
2021/11/30 11:03:41;;;;;;;17.98;3.83;;;;;;;5.38;75.67;98607.34;5088731;28;20067;-72
2021/11/30 11:08:55;;;;;;;27.40;5.45;;;;;;;5.33;76.09;98617.66;5089772;28;20039;-71
2021/11/30 11:11:25;;;;;;;15.98;3.97;;;;;;;5.33;75.91;98616.84;5088858;28;20496;-71
2021/11/30 11:13:52;;;;;;;11.57;2.75;;;;;;;5.32;76.56;98625.81;5089335;28;20036;-71
2021/11/30 11:16:19;;;;;;;;;;;;;;;5.36;76.23;98651.72;5089135;28;20178;-71
2021/11/30 11:18:45;;;;;;;20.58;3.90;;;;;;;5.41;75.88;98625.53;5088485;28;19911;-71
2021/11/30 11:21:11;;;;;;;;;;;;;;;5.58;76.98;98680.97;5089978;28;20332;-71
2021/11/30 11:23:41;;;;;;;22.95;3.65;;;;;;;5.49;76.47;98621.97;5071222;28;19912;-71
2021/11/30 11:26:22;;;;;;;21.80;3.92;;;;;;;5.42;76.48;98615.78;5088674;28;20164;-71
2021/11/30 11:28:49;;;;;;;25.25;3.33;;;;;;;5.51;77.32;98630.56;5071646;28;20118;-71
2021/11/30 11:31:14;;;;;;;;;;;;;;;5.57;76.50;98621.06;5088938;28;20036;-71
2021/11/30 11:33:40;;;;;;;13.82;2.42;;;;;;;5.55;76.61;98636.31;5089506;28;19912;-71
2021/11/30 11:36:06;;;;;;;23.33;4.07;;;;;;;5.54;77.00;98661.97;5088510;28;20047;-71
2021/11/30 11:38:32;;;;;;;;;;;;;;;5.28;77.04;98618.22;5088839;28;20507;-71
2021/11/30 11:40:58;;;;;;;14.93;4.57;;;;;;;5.37;77.07;98639.31;5088320;28;19922;-71
2021/11/30 11:43:24;;;;;;;15.05;3.05;;;;;;;5.75;77.09;98692.19;5071408;28;20473;-72
2021/11/30 11:45:50;;;;;;;14.35;3.10;;;;;;;6.09;76.03;98662.56;5087973;28;20332;-71
2021/11/30 11:48:16;;;;;;;16.73;3.83;;;;;;;6.13;75.21;98632.84;5089061;28;20032;-72